Quenames — WTU9038 — position and weather

sailwx.info

Track history (hours):
 
Tides and Currents Weather Stations Pressure Air Temp Water Temp Dewpoint Dewpoint Depression Visibility Wind Speed Wind Dir Waves Ship Positions

Quenames

Owner: BOSTON MARINE TRANSPORT INC, EAST BOSTON, MA. More information available from US FCC via Universal Licensing System and Coast Guard Vessel Documentation Center.

Last reported at 2015-Jan-11 21:21 UTC. Time now 2015-Jan-25 10:18 UTC.
Position N 40°32' W 074°15'.
Warning: this ship's position is 13 days out of date.

Length 23 m.

Type: Tug. MMSI: 367022790.

Date/timePositionNaut miles runAvg speedWind from/ knotsBaromVisibWave heightAir tempDewpointWater temp
2015-Jan-11 21:21N 40°32' W 074°15'0 0.0
2015-Jan-11 19:12N 40°32' W 074°15'0 0.0
2015-Jan-11 18:28N 40°32' W 074°15'0 0.0
2015-Jan-11 17:20N 40°32' W 074°15'0 0.0
2015-Jan-11 16:25N 40°32' W 074°15'0 0.0
2015-Jan-11 15:12N 40°32' W 074°15'0 0.0
2015-Jan-11 14:06N 40°32' W 074°15'0 0.0
2015-Jan-11 13:33N 40°32' W 074°15'0 0.0
2015-Jan-11 12:31N 40°32' W 074°15'0 0.0
2015-Jan-11 11:33N 40°32' W 074°15'0 0.0
2015-Jan-11 10:21N 40°32' W 074°15'0 0.0
2015-Jan-11 09:13N 40°32' W 074°15'0 0.0
2015-Jan-11 08:26N 40°32' W 074°15'0 0.0
2015-Jan-11 06:20N 40°32' W 074°15'0 0.0
2015-Jan-11 05:12N 40°32' W 074°15'0 0.0
2015-Jan-11 04:11N 40°32' W 074°15'0 0.0
2015-Jan-11 03:30N 40°32' W 074°15'0 0.0
2015-Jan-11 02:19N 40°32' W 074°15'0 0.0
2015-Jan-11 01:11N 40°32' W 074°15'0 0.0
2015-Jan-11 00:27N 40°32' W 074°15'0 0.0
2015-Jan-10 23:09N 40°32' W 074°15'0 0.0
2015-Jan-10 22:33N 40°32' W 074°15'0 0.0
2015-Jan-10 20:16N 40°32' W 074°15'0 0.0
2015-Jan-10 18:05N 40°32' W 074°15'0 0.0
2015-Jan-10 17:26N 40°32' W 074°15'0 0.0
2015-Jan-10 15:20N 40°32' W 074°15'0 0.0
2015-Jan-10 12:25N 40°32' W 074°15'0 0.0
2015-Jan-10 11:09N 40°32' W 074°15'0 0.0
2015-Jan-10 10:31N 40°32' W 074°15'0 0.0
2015-Jan-10 06:26N 40°32' W 074°15'0 0.0
2015-Jan-10 05:18N 40°32' W 074°15'0 0.0
2015-Jan-10 04:29N 40°32' W 074°15'0 0.0
2015-Jan-10 03:23N 40°32' W 074°15'0 0.0
2015-Jan-10 02:26N 40°32' W 074°15'0 0.0
2015-Jan-10 01:32N 40°32' W 074°15'0 0.0
2015-Jan-10 00:04N 40°32' W 074°15'0 0.0
2015-Jan-09 23:18N 40°32' W 074°15'0 0.0
2015-Jan-09 22:07N 40°32' W 074°15'0 0.0
2015-Jan-09 21:19N 40°32' W 074°15'0 0.0
2015-Jan-09 19:20N 40°32' W 074°15'0 0.0
2015-Jan-09 18:31N 40°32' W 074°15'0 0.0
2015-Jan-09 17:20N 40°32' W 074°15'0 0.2
2015-Jan-09 16:23N 40°32' W 074°15'1 0.8
2015-Jan-09 15:15N 40°33' W 074°15'0 0.0
2015-Jan-09 14:29N 40°33' W 074°15'0 0.0
2015-Jan-09 13:22N 40°33' W 074°15'0 0.0
2015-Jan-09 12:12N 40°33' W 074°15'0 0.0
2015-Jan-09 11:23N 40°33' W 074°15'0 0.0
2015-Jan-09 10:29N 40°33' W 074°15'0 0.0
2015-Jan-09 09:27N 40°33' W 074°15'0 0.0
2015-Jan-09 08:27N 40°33' W 074°15'0 0.0
2015-Jan-09 06:20N 40°33' W 074°15'0 0.0
2015-Jan-09 04:14N 40°33' W 074°15'0 0.0
2015-Jan-09 03:32N 40°33' W 074°15'3 3.0
2015-Jan-09 02:24N 40°36' W 074°12'7 8.5
2015-Jan-09 01:34N 40°39' W 074°04'3 2.6
2015-Jan-09 00:34N 40°40' W 074°01'10 4.2
2015-Jan-08 22:17N 40°36' W 074°12'3 4.5
2015-Jan-08 21:31N 40°33' W 074°15'2 2.2
2015-Jan-08 20:23N 40°35' W 074°13'4 5.2
2015-Jan-08 19:34N 40°39' W 074°10'0 0.0
2015-Jan-08 18:30N 40°39' W 074°10'0 0.0
2015-Jan-08 17:33N 40°39' W 074°10'0 0.0
2015-Jan-08 16:34N 40°39' W 074°10'0 0.0
2015-Jan-08 15:33N 40°39' W 074°10'0 0.0
2015-Jan-08 14:30N 40°39' W 074°10'0 0.0
2015-Jan-08 13:15N 40°39' W 074°10'0 0.0
2015-Jan-08 12:31N 40°39' W 074°10'0 0.0
2015-Jan-08 11:09N 40°39' W 074°10'0 0.0
2015-Jan-08 10:33N 40°39' W 074°10'0 0.0
2015-Jan-08 09:33N 40°39' W 074°10'0 0.0
2015-Jan-08 06:31N 40°39' W 074°10'0 0.0
2015-Jan-08 04:06N 40°39' W 074°10'0 0.0
2015-Jan-08 03:46N 40°39' W 074°10'0 0.0
2015-Jan-07 16:24N 40°39' W 074°10'0 0.0
2015-Jan-07 15:34N 40°39' W 074°10'0 0.0
2015-Jan-07 12:34N 40°39' W 074°10'0 0.0
2015-Jan-07 11:19N 40°39' W 074°10'0 0.0
2015-Jan-07 10:34N 40°39' W 074°10'0 0.0
2015-Jan-07 09:32N 40°39' W 074°10'0 0.0
2015-Jan-07 08:34N 40°39' W 074°10'0 0.0
2015-Jan-07 07:34N 40°39' W 074°10'0 0.0
2015-Jan-07 06:24N 40°39' W 074°10'0 0.0
2015-Jan-07 05:26N 40°39' W 074°10'0 0.0
2015-Jan-07 04:27N 40°39' W 074°10'0 0.0
2015-Jan-07 03:33N 40°39' W 074°10'0 0.0
2015-Jan-07 02:31N 40°39' W 074°10'0 0.0
2015-Jan-07 01:31N 40°39' W 074°10'0 0.0
2015-Jan-07 00:25N 40°39' W 074°10'0 0.0
2015-Jan-06 22:28N 40°39' W 074°10'0 0.0
2015-Jan-06 21:33N 40°39' W 074°10'0 0.0
2015-Jan-06 20:12N 40°39' W 074°10'0 0.0
2015-Jan-06 19:33N 40°39' W 074°10'7 3.3
2015-Jan-06 17:31N 40°33' W 074°15'0 0.5
2015-Jan-06 16:32N 40°32' W 074°15'0 0.2
2015-Jan-06 14:20N 40°33' W 074°15'1 0.5
2015-Jan-06 12:27N 40°32' W 074°15'0 0.0
2015-Jan-06 11:23N 40°32' W 074°15'0 0.0
2015-Jan-06 10:24N 40°32' W 074°15'0 0.0
2015-Jan-06 06:28N 40°32' W 074°15'0 0.0
2015-Jan-06 04:31N 40°32' W 074°15'0 0.0
2015-Jan-06 02:24N 40°32' W 074°15'0 0.0
2015-Jan-06 00:25N 40°32' W 074°15'0 0.0
2015-Jan-05 23:06N 40°32' W 074°15'1 0.3
2015-Jan-05 19:31N 40°33' W 074°15'0 0.0
2015-Jan-05 18:20N 40°33' W 074°15'0 0.0
2015-Jan-05 17:24N 40°33' W 074°15'0 0.0
2015-Jan-05 16:18N 40°33' W 074°15'0 0.0
2015-Jan-05 15:09N 40°33' W 074°15'0 0.0
2015-Jan-05 11:20N 40°33' W 074°15'0 0.0
2015-Jan-05 10:16N 40°33' W 074°15'0 0.0
2015-Jan-05 08:32N 40°33' W 074°15'0 0.0
2015-Jan-05 07:05N 40°33' W 074°15'0 0.0
2015-Jan-05 06:10N 40°33' W 074°15'0 0.0
2015-Jan-05 05:31N 40°33' W 074°15'0 0.0
2015-Jan-05 03:32N 40°33' W 074°15'0 0.0
2015-Jan-05 01:30N 40°33' W 074°15'0 0.0
2015-Jan-05 00:31N 40°33' W 074°15'0 0.0
2015-Jan-04 23:28N 40°33' W 074°15'0 0.0
2015-Jan-04 18:18N 40°33' W 074°15'0 0.0
2015-Jan-04 17:23N 40°33' W 074°15'0 0.0
2015-Jan-04 16:29N 40°33' W 074°15'0 0.0
2015-Jan-04 14:13N 40°33' W 074°15'0 0.0
2015-Jan-04 04:33N 40°33' W 074°15'0 0.0
2015-Jan-04 03:20N 40°33' W 074°15'0 0.0
2015-Jan-03 22:31N 40°33' W 074°15'0 0.0
2015-Jan-03 18:18N 40°33' W 074°15'0 0.0
2015-Jan-03 17:04N 40°33' W 074°15'0 0.0
2015-Jan-03 15:10N 40°33' W 074°15'0 0.0
2015-Jan-03 14:32N 40°33' W 074°15'0 0.0
2015-Jan-03 13:30N 40°33' W 074°15'0 0.0
2015-Jan-03 06:17N 40°33' W 074°15'0 0.0
2015-Jan-03 04:22N 40°33' W 074°15'0 0.0
2015-Jan-03 02:26N 40°33' W 074°15'1 0.1
2015-Jan-02 17:11N 40°32' W 074°15'0 0.0
2015-Jan-02 16:10N 40°32' W 074°15'0 0.0
2015-Jan-02 15:12N 40°32' W 074°15'0 0.0
2015-Jan-02 14:23N 40°32' W 074°15'1 1.2
2015-Jan-02 13:32N 40°33' W 074°15'0 0.0
2015-Jan-02 11:32N 40°33' W 074°15'0 0.0
2015-Jan-02 08:15N 40°33' W 074°15'0 0.0
2015-Jan-02 05:17N 40°33' W 074°15'0 0.0
2015-Jan-02 04:31N 40°33' W 074°15'0 0.0
2015-Jan-02 03:33N 40°33' W 074°15'0 0.0
2015-Jan-02 02:30N 40°33' W 074°15'0 0.0
2015-Jan-02 01:25N 40°33' W 074°15'0 0.0
2015-Jan-02 00:25N 40°33' W 074°15'0 0.0
2015-Jan-01 23:25N 40°33' W 074°15'0 0.0
2015-Jan-01 22:07N 40°33' W 074°15'  
Track history (hours):
 
Tides and Currents Weather Stations Pressure Air Temp Water Temp Dewpoint Dewpoint Depression Visibility Wind Speed Wind Dir Waves Ship Positions

Quenames

Owner: BOSTON MARINE TRANSPORT INC, EAST BOSTON, MA. More information available from US FCC via Universal Licensing System and Coast Guard Vessel Documentation Center.

Last reported at 2015-Jan-11 21:21 UTC. Time now 2015-Jan-25 10:18 UTC.
Position N 40°32' W 074°15'.
Warning: this ship's position is 13 days out of date.

Length 23 m.

Type: Tug. MMSI: 367022790.

Date/timePositionNaut miles runAvg speedWind from/ knotsBaromVisibWave heightAir tempDewpointWater temp
2015-Jan-11 21:21N 40°32' W 074°15'0 0.0
2015-Jan-11 19:12N 40°32' W 074°15'0 0.0
2015-Jan-11 18:28N 40°32' W 074°15'0 0.0
2015-Jan-11 17:20N 40°32' W 074°15'0 0.0
2015-Jan-11 16:25N 40°32' W 074°15'0 0.0
2015-Jan-11 15:12N 40°32' W 074°15'0 0.0
2015-Jan-11 14:06N 40°32' W 074°15'0 0.0
2015-Jan-11 13:33N 40°32' W 074°15'0 0.0
2015-Jan-11 12:31N 40°32' W 074°15'0 0.0
2015-Jan-11 11:33N 40°32' W 074°15'0 0.0
2015-Jan-11 10:21N 40°32' W 074°15'0 0.0
2015-Jan-11 09:13N 40°32' W 074°15'0 0.0
2015-Jan-11 08:26N 40°32' W 074°15'0 0.0
2015-Jan-11 06:20N 40°32' W 074°15'0 0.0
2015-Jan-11 05:12N 40°32' W 074°15'0 0.0
2015-Jan-11 04:11N 40°32' W 074°15'0 0.0
2015-Jan-11 03:30N 40°32' W 074°15'0 0.0
2015-Jan-11 02:19N 40°32' W 074°15'0 0.0
2015-Jan-11 01:11N 40°32' W 074°15'0 0.0
2015-Jan-11 00:27N 40°32' W 074°15'0 0.0
2015-Jan-10 23:09N 40°32' W 074°15'0 0.0
2015-Jan-10 22:33N 40°32' W 074°15'0 0.0
2015-Jan-10 20:16N 40°32' W 074°15'0 0.0
2015-Jan-10 18:05N 40°32' W 074°15'0 0.0
2015-Jan-10 17:26N 40°32' W 074°15'0 0.0
2015-Jan-10 15:20N 40°32' W 074°15'0 0.0
2015-Jan-10 12:25N 40°32' W 074°15'0 0.0
2015-Jan-10 11:09N 40°32' W 074°15'0 0.0
2015-Jan-10 10:31N 40°32' W 074°15'0 0.0
2015-Jan-10 06:26N 40°32' W 074°15'0 0.0
2015-Jan-10 05:18N 40°32' W 074°15'0 0.0
2015-Jan-10 04:29N 40°32' W 074°15'0 0.0
2015-Jan-10 03:23N 40°32' W 074°15'0 0.0
2015-Jan-10 02:26N 40°32' W 074°15'0 0.0
2015-Jan-10 01:32N 40°32' W 074°15'0 0.0
2015-Jan-10 00:04N 40°32' W 074°15'0 0.0
2015-Jan-09 23:18N 40°32' W 074°15'0 0.0
2015-Jan-09 22:07N 40°32' W 074°15'0 0.0
2015-Jan-09 21:19N 40°32' W 074°15'0 0.0
2015-Jan-09 19:20N 40°32' W 074°15'0 0.0
2015-Jan-09 18:31N 40°32' W 074°15'0 0.0
2015-Jan-09 17:20N 40°32' W 074°15'0 0.2
2015-Jan-09 16:23N 40°32' W 074°15'1 0.8
2015-Jan-09 15:15N 40°33' W 074°15'0 0.0
2015-Jan-09 14:29N 40°33' W 074°15'0 0.0
2015-Jan-09 13:22N 40°33' W 074°15'0 0.0
2015-Jan-09 12:12N 40°33' W 074°15'0 0.0
2015-Jan-09 11:23N 40°33' W 074°15'0 0.0
2015-Jan-09 10:29N 40°33' W 074°15'0 0.0
2015-Jan-09 09:27N 40°33' W 074°15'0 0.0
2015-Jan-09 08:27N 40°33' W 074°15'0 0.0
2015-Jan-09 06:20N 40°33' W 074°15'0 0.0
2015-Jan-09 04:14N 40°33' W 074°15'0 0.0
2015-Jan-09 03:32N 40°33' W 074°15'3 3.0
2015-Jan-09 02:24N 40°36' W 074°12'7 8.5
2015-Jan-09 01:34N 40°39' W 074°04'3 2.6
2015-Jan-09 00:34N 40°40' W 074°01'10 4.2
2015-Jan-08 22:17N 40°36' W 074°12'3 4.5
2015-Jan-08 21:31N 40°33' W 074°15'2 2.2
2015-Jan-08 20:23N 40°35' W 074°13'4 5.2
2015-Jan-08 19:34N 40°39' W 074°10'0 0.0
2015-Jan-08 18:30N 40°39' W 074°10'0 0.0
2015-Jan-08 17:33N 40°39' W 074°10'0 0.0
2015-Jan-08 16:34N 40°39' W 074°10'0 0.0
2015-Jan-08 15:33N 40°39' W 074°10'0 0.0
2015-Jan-08 14:30N 40°39' W 074°10'0 0.0
2015-Jan-08 13:15N 40°39' W 074°10'0 0.0
2015-Jan-08 12:31N 40°39' W 074°10'0 0.0
2015-Jan-08 11:09N 40°39' W 074°10'0 0.0
2015-Jan-08 10:33N 40°39' W 074°10'0 0.0
2015-Jan-08 09:33N 40°39' W 074°10'0 0.0
2015-Jan-08 06:31N 40°39' W 074°10'0 0.0
2015-Jan-08 04:06N 40°39' W 074°10'0 0.0
2015-Jan-08 03:46N 40°39' W 074°10'0 0.0
2015-Jan-07 16:24N 40°39' W 074°10'0 0.0
2015-Jan-07 15:34N 40°39' W 074°10'0 0.0
2015-Jan-07 12:34N 40°39' W 074°10'0 0.0
2015-Jan-07 11:19N 40°39' W 074°10'0 0.0
2015-Jan-07 10:34N 40°39' W 074°10'0 0.0
2015-Jan-07 09:32N 40°39' W 074°10'0 0.0
2015-Jan-07 08:34N 40°39' W 074°10'0 0.0
2015-Jan-07 07:34N 40°39' W 074°10'0 0.0
2015-Jan-07 06:24N 40°39' W 074°10'0 0.0
2015-Jan-07 05:26N 40°39' W 074°10'0 0.0
2015-Jan-07 04:27N 40°39' W 074°10'0 0.0
2015-Jan-07 03:33N 40°39' W 074°10'0 0.0
2015-Jan-07 02:31N 40°39' W 074°10'0 0.0
2015-Jan-07 01:31N 40°39' W 074°10'0 0.0
2015-Jan-07 00:25N 40°39' W 074°10'0 0.0
2015-Jan-06 22:28N 40°39' W 074°10'0 0.0
2015-Jan-06 21:33N 40°39' W 074°10'0 0.0
2015-Jan-06 20:12N 40°39' W 074°10'0 0.0
2015-Jan-06 19:33N 40°39' W 074°10'7 3.3
2015-Jan-06 17:31N 40°33' W 074°15'0 0.5
2015-Jan-06 16:32N 40°32' W 074°15'0 0.2
2015-Jan-06 14:20N 40°33' W 074°15'1 0.5
2015-Jan-06 12:27N 40°32' W 074°15'0 0.0
2015-Jan-06 11:23N 40°32' W 074°15'0 0.0
2015-Jan-06 10:24N 40°32' W 074°15'0 0.0
2015-Jan-06 06:28N 40°32' W 074°15'0 0.0
2015-Jan-06 04:31N 40°32' W 074°15'0 0.0
2015-Jan-06 02:24N 40°32' W 074°15'0 0.0
2015-Jan-06 00:25N 40°32' W 074°15'0 0.0
2015-Jan-05 23:06N 40°32' W 074°15'1 0.3
2015-Jan-05 19:31N 40°33' W 074°15'0 0.0
2015-Jan-05 18:20N 40°33' W 074°15'0 0.0
2015-Jan-05 17:24N 40°33' W 074°15'0 0.0
2015-Jan-05 16:18N 40°33' W 074°15'0 0.0
2015-Jan-05 15:09N 40°33' W 074°15'0 0.0
2015-Jan-05 11:20N 40°33' W 074°15'0 0.0
2015-Jan-05 10:16N 40°33' W 074°15'0 0.0
2015-Jan-05 08:32N 40°33' W 074°15'0 0.0
2015-Jan-05 07:05N 40°33' W 074°15'0 0.0
2015-Jan-05 06:10N 40°33' W 074°15'0 0.0
2015-Jan-05 05:31N 40°33' W 074°15'0 0.0
2015-Jan-05 03:32N 40°33' W 074°15'0 0.0
2015-Jan-05 01:30N 40°33' W 074°15'0 0.0
2015-Jan-05 00:31N 40°33' W 074°15'0 0.0
2015-Jan-04 23:28N 40°33' W 074°15'0 0.0
2015-Jan-04 18:18N 40°33' W 074°15'0 0.0
2015-Jan-04 17:23N 40°33' W 074°15'0 0.0
2015-Jan-04 16:29N 40°33' W 074°15'0 0.0
2015-Jan-04 14:13N 40°33' W 074°15'0 0.0
2015-Jan-04 04:33N 40°33' W 074°15'0 0.0
2015-Jan-04 03:20N 40°33' W 074°15'0 0.0
2015-Jan-03 22:31N 40°33' W 074°15'0 0.0
2015-Jan-03 18:18N 40°33' W 074°15'0 0.0
2015-Jan-03 17:04N 40°33' W 074°15'0 0.0
2015-Jan-03 15:10N 40°33' W 074°15'0 0.0
2015-Jan-03 14:32N 40°33' W 074°15'0 0.0
2015-Jan-03 13:30N 40°33' W 074°15'0 0.0
2015-Jan-03 06:17N 40°33' W 074°15'0 0.0
2015-Jan-03 04:22N 40°33' W 074°15'0 0.0
2015-Jan-03 02:26N 40°33' W 074°15'1 0.1
2015-Jan-02 17:11N 40°32' W 074°15'0 0.0
2015-Jan-02 16:10N 40°32' W 074°15'0 0.0
2015-Jan-02 15:12N 40°32' W 074°15'0 0.0
2015-Jan-02 14:23N 40°32' W 074°15'1 1.2
2015-Jan-02 13:32N 40°33' W 074°15'0 0.0
2015-Jan-02 11:32N 40°33' W 074°15'0 0.0
2015-Jan-02 08:15N 40°33' W 074°15'0 0.0
2015-Jan-02 05:17N 40°33' W 074°15'0 0.0
2015-Jan-02 04:31N 40°33' W 074°15'0 0.0
2015-Jan-02 03:33N 40°33' W 074°15'0 0.0
2015-Jan-02 02:30N 40°33' W 074°15'0 0.0
2015-Jan-02 01:25N 40°33' W 074°15'0 0.0
2015-Jan-02 00:25N 40°33' W 074°15'0 0.0
2015-Jan-01 23:25N 40°33' W 074°15'0 0.0
2015-Jan-01 22:07N 40°33' W 074°15'  

Dump ship's entire track history